sensor_id;sensor_type;location;lat;lon;timestamp;P1;durP1;ratioP1;P2;durP2;ratioP2
72408;SDS011;60402;48.082;11.628;2023-05-10T00:00:05;1.55;;;0.70;;
72408;SDS011;60402;48.082;11.628;2023-05-10T00:02:51;1.23;;;0.60;;
72408;SDS011;60402;48.082;11.628;2023-05-10T00:05:37;1.48;;;0.68;;
72408;SDS011;60402;48.082;11.628;2023-05-10T00:08:22;2.30;;;0.70;;
72408;SDS011;60402;48.082;11.628;2023-05-10T00:11:08;2.70;;;0.90;;
72408;SDS011;60402;48.082;11.628;2023-05-10T00:13:54;0.73;;;0.60;;
72408;SDS011;60402;48.082;11.628;2023-05-10T00:16:40;1.15;;;0.60;;
72408;SDS011;60402;48.082;11.628;2023-05-10T00:19:26;1.10;;;0.70;;
72408;SDS011;60402;48.082;11.628;2023-05-10T00:22:11;1.25;;;0.63;;
72408;SDS011;60402;48.082;11.628;2023-05-10T00:24:57;1.63;;;0.90;;
72408;SDS011;60402;48.082;11.628;2023-05-10T00:27:44;3.70;;;0.85;;
72408;SDS011;60402;48.082;11.628;2023-05-10T00:30:29;0.82;;;0.60;;
72408;SDS011;60402;48.082;11.628;2023-05-10T00:33:15;1.48;;;0.60;;
72408;SDS011;60402;48.082;11.628;2023-05-10T00:36:01;1.15;;;0.63;;
72408;SDS011;60402;48.082;11.628;2023-05-10T00:38:46;0.90;;;0.60;;
72408;SDS011;60402;48.082;11.628;2023-05-10T00:41:32;1.15;;;0.80;;
72408;SDS011;60402;48.082;11.628;2023-05-10T00:44:18;2.08;;;0.60;;
72408;SDS011;60402;48.082;11.628;2023-05-10T00:47:03;2.25;;;0.60;;
72408;SDS011;60402;48.082;11.628;2023-05-10T00:49:49;1.02;;;0.50;;
72408;SDS011;60402;48.082;11.628;2023-05-10T00:52:35;0.90;;;0.57;;
72408;SDS011;60402;48.082;11.628;2023-05-10T00:55:21;2.17;;;0.90;;
72408;SDS011;60402;48.082;11.628;2023-05-10T00:58:06;1.83;;;0.75;;
72408;SDS011;60402;48.082;11.628;2023-05-10T01:00:52;0.65;;;0.57;;
72408;SDS011;60402;48.082;11.628;2023-05-10T01:03:40;1.02;;;0.70;;
72408;SDS011;60402;48.082;11.628;2023-05-10T01:06:26;0.88;;;0.60;;
72408;SDS011;60402;48.082;11.628;2023-05-10T01:09:13;0.55;;;0.43;;
72408;SDS011;60402;48.082;11.628;2023-05-10T01:11:58;0.75;;;0.65;;
72408;SDS011;60402;48.082;11.628;2023-05-10T01:14:45;2.85;;;0.82;;
72408;SDS011;60402;48.082;11.628;2023-05-10T01:17:31;1.15;;;0.50;;
72408;SDS011;60402;48.082;11.628;2023-05-10T01:20:18;0.50;;;0.45;;
72408;SDS011;60402;48.082;11.628;2023-05-10T01:23:22;1.35;;;0.40;;
72408;SDS011;60402;48.082;11.628;2023-05-10T01:26:26;0.75;;;0.40;;
72408;SDS011;60402;48.082;11.628;2023-05-10T01:32:26;1.05;;;0.52;;
72408;SDS011;60402;48.082;11.628;2023-05-10T01:35:21;0.73;;;0.50;;
72408;SDS011;60402;48.082;11.628;2023-05-10T01:41:16;1.45;;;0.57;;
72408;SDS011;60402;48.082;11.628;2023-05-10T01:44:54;0.70;;;0.60;;
72408;SDS011;60402;48.082;11.628;2023-05-10T01:47:38;0.60;;;0.60;;
72408;SDS011;60402;48.082;11.628;2023-05-10T01:50:27;0.90;;;0.50;;
72408;SDS011;60402;48.082;11.628;2023-05-10T01:53:17;0.60;;;0.50;;
72408;SDS011;60402;48.082;11.628;2023-05-10T01:56:05;1.45;;;0.70;;
72408;SDS011;60402;48.082;11.628;2023-05-10T01:58:53;0.95;;;0.60;;
72408;SDS011;60402;48.082;11.628;2023-05-10T02:01:41;0.30;;;0.30;;
72408;SDS011;60402;48.082;11.628;2023-05-10T02:04:30;1.23;;;0.55;;
72408;SDS011;60402;48.082;11.628;2023-05-10T02:07:17;1.05;;;0.40;;
72408;SDS011;60402;48.082;11.628;2023-05-10T02:10:07;0.95;;;0.50;;
72408;SDS011;60402;48.082;11.628;2023-05-10T02:12:54;1.30;;;0.35;;
72408;SDS011;60402;48.082;11.628;2023-05-10T02:15:43;1.85;;;0.57;;
72408;SDS011;60402;48.082;11.628;2023-05-10T02:18:35;0.50;;;0.38;;
72408;SDS011;60402;48.082;11.628;2023-05-10T02:21:22;1.17;;;0.57;;
72408;SDS011;60402;48.082;11.628;2023-05-10T02:24:08;0.57;;;0.50;;
72408;SDS011;60402;48.082;11.628;2023-05-10T02:26:55;1.17;;;0.50;;
72408;SDS011;60402;48.082;11.628;2023-05-10T02:29:42;0.60;;;0.40;;
72408;SDS011;60402;48.082;11.628;2023-05-10T02:32:29;0.90;;;0.60;;
72408;SDS011;60402;48.082;11.628;2023-05-10T02:35:15;0.90;;;0.60;;
72408;SDS011;60402;48.082;11.628;2023-05-10T02:38:01;0.85;;;0.40;;
72408;SDS011;60402;48.082;11.628;2023-05-10T02:40:47;0.80;;;0.45;;
72408;SDS011;60402;48.082;11.628;2023-05-10T02:43:33;0.60;;;0.43;;
72408;SDS011;60402;48.082;11.628;2023-05-10T02:46:20;0.52;;;0.40;;
72408;SDS011;60402;48.082;11.628;2023-05-10T02:49:06;1.38;;;0.50;;
72408;SDS011;60402;48.082;11.628;2023-05-10T02:51:55;1.83;;;0.65;;
72408;SDS011;60402;48.082;11.628;2023-05-10T02:54:44;0.88;;;0.47;;
72408;SDS011;60402;48.082;11.628;2023-05-10T03:00:19;1.15;;;0.50;;
72408;SDS011;60402;48.082;11.628;2023-05-10T03:03:05;1.60;;;0.50;;
72408;SDS011;60402;48.082;11.628;2023-05-10T03:05:50;0.70;;;0.50;;
72408;SDS011;60402;48.082;11.628;2023-05-10T03:08:36;0.70;;;0.52;;
72408;SDS011;60402;48.082;11.628;2023-05-10T03:14:34;1.58;;;0.50;;
72408;SDS011;60402;48.082;11.628;2023-05-10T03:17:35;0.93;;;0.40;;
72408;SDS011;60402;48.082;11.628;2023-05-10T03:20:26;1.13;;;0.50;;
72408;SDS011;60402;48.082;11.628;2023-05-10T03:26:02;0.57;;;0.30;;
72408;SDS011;60402;48.082;11.628;2023-05-10T03:28:48;0.40;;;0.40;;
72408;SDS011;60402;48.082;11.628;2023-05-10T03:31:35;1.10;;;0.43;;
72408;SDS011;60402;48.082;11.628;2023-05-10T03:34:23;1.10;;;0.30;;
72408;SDS011;60402;48.082;11.628;2023-05-10T03:37:09;0.57;;;0.30;;
72408;SDS011;60402;48.082;11.628;2023-05-10T03:39:55;0.30;;;0.22;;
72408;SDS011;60402;48.082;11.628;2023-05-10T03:42:40;0.30;;;0.20;;
72408;SDS011;60402;48.082;11.628;2023-05-10T03:45:26;2.22;;;0.35;;
72408;SDS011;60402;48.082;11.628;2023-05-10T03:48:12;1.27;;;0.52;;
72408;SDS011;60402;48.082;11.628;2023-05-10T03:50:58;0.45;;;0.40;;
72408;SDS011;60402;48.082;11.628;2023-05-10T03:53:44;0.38;;;0.30;;
72408;SDS011;60402;48.082;11.628;2023-05-10T03:56:30;1.27;;;0.50;;
72408;SDS011;60402;48.082;11.628;2023-05-10T03:59:15;0.68;;;0.40;;
72408;SDS011;60402;48.082;11.628;2023-05-10T04:02:01;0.32;;;0.30;;
72408;SDS011;60402;48.082;11.628;2023-05-10T04:04:47;1.42;;;0.50;;
72408;SDS011;60402;48.082;11.628;2023-05-10T04:07:33;0.70;;;0.50;;
72408;SDS011;60402;48.082;11.628;2023-05-10T04:10:19;0.63;;;0.50;;
72408;SDS011;60402;48.082;11.628;2023-05-10T04:13:04;1.33;;;0.30;;
72408;SDS011;60402;48.082;11.628;2023-05-10T04:15:50;0.35;;;0.20;;
72408;SDS011;60402;48.082;11.628;2023-05-10T04:18:36;0.90;;;0.22;;
72408;SDS011;60402;48.082;11.628;2023-05-10T04:21:21;0.20;;;0.20;;
72408;SDS011;60402;48.082;11.628;2023-05-10T04:24:07;0.88;;;0.40;;
72408;SDS011;60402;48.082;11.628;2023-05-10T04:26:53;1.08;;;0.20;;
72408;SDS011;60402;48.082;11.628;2023-05-10T04:29:40;0.50;;;0.38;;
72408;SDS011;60402;48.082;11.628;2023-05-10T04:32:26;0.40;;;0.30;;
72408;SDS011;60402;48.082;11.628;2023-05-10T04:35:12;0.57;;;0.38;;
72408;SDS011;60402;48.082;11.628;2023-05-10T04:38:00;2.20;;;0.95;;
72408;SDS011;60402;48.082;11.628;2023-05-10T04:40:45;0.63;;;0.40;;
72408;SDS011;60402;48.082;11.628;2023-05-10T04:43:31;1.10;;;0.20;;
72408;SDS011;60402;48.082;11.628;2023-05-10T04:46:17;0.32;;;0.20;;
72408;SDS011;60402;48.082;11.628;2023-05-10T04:49:02;1.65;;;0.47;;
72408;SDS011;60402;48.082;11.628;2023-05-10T04:51:48;0.65;;;0.20;;
72408;SDS011;60402;48.082;11.628;2023-05-10T04:54:34;0.55;;;0.20;;
72408;SDS011;60402;48.082;11.628;2023-05-10T04:57:20;1.10;;;0.40;;
72408;SDS011;60402;48.082;11.628;2023-05-10T05:00:05;1.17;;;0.38;;
72408;SDS011;60402;48.082;11.628;2023-05-10T05:02:52;0.47;;;0.28;;
72408;SDS011;60402;48.082;11.628;2023-05-10T05:05:37;1.50;;;0.35;;
72408;SDS011;60402;48.082;11.628;2023-05-10T05:08:23;0.70;;;0.30;;
72408;SDS011;60402;48.082;11.628;2023-05-10T05:11:09;1.40;;;0.20;;
72408;SDS011;60402;48.082;11.628;2023-05-10T05:13:54;0.30;;;0.22;;
72408;SDS011;60402;48.082;11.628;2023-05-10T05:16:40;0.88;;;0.30;;
72408;SDS011;60402;48.082;11.628;2023-05-10T05:19:26;0.88;;;0.22;;
72408;SDS011;60402;48.082;11.628;2023-05-10T05:22:12;1.08;;;0.85;;
72408;SDS011;60402;48.082;11.628;2023-05-10T05:24:58;0.70;;;0.20;;
72408;SDS011;60402;48.082;11.628;2023-05-10T05:27:43;1.13;;;0.40;;
72408;SDS011;60402;48.082;11.628;2023-05-10T05:30:29;1.17;;;0.30;;
72408;SDS011;60402;48.082;11.628;2023-05-10T05:33:15;0.43;;;0.20;;
72408;SDS011;60402;48.082;11.628;2023-05-10T05:36:01;1.35;;;0.30;;
72408;SDS011;60402;48.082;11.628;2023-05-10T05:38:48;0.75;;;0.40;;
72408;SDS011;60402;48.082;11.628;2023-05-10T05:41:34;0.52;;;0.35;;
72408;SDS011;60402;48.082;11.628;2023-05-10T05:44:19;1.02;;;0.28;;
72408;SDS011;60402;48.082;11.628;2023-05-10T05:47:05;1.23;;;0.30;;
72408;SDS011;60402;48.082;11.628;2023-05-10T05:49:51;0.20;;;0.20;;
72408;SDS011;60402;48.082;11.628;2023-05-10T05:52:37;0.50;;;0.20;;
72408;SDS011;60402;48.082;11.628;2023-05-10T05:55:23;1.17;;;0.20;;
72408;SDS011;60402;48.082;11.628;2023-05-10T05:58:09;1.25;;;0.40;;
72408;SDS011;60402;48.082;11.628;2023-05-10T06:00:55;3.10;;;0.55;;
72408;SDS011;60402;48.082;11.628;2023-05-10T06:03:40;0.35;;;0.20;;
72408;SDS011;60402;48.082;11.628;2023-05-10T06:06:26;1.33;;;0.47;;
72408;SDS011;60402;48.082;11.628;2023-05-10T06:09:12;3.13;;;0.85;;
72408;SDS011;60402;48.082;11.628;2023-05-10T06:11:58;0.63;;;0.40;;
72408;SDS011;60402;48.082;11.628;2023-05-10T06:14:43;0.88;;;0.47;;
72408;SDS011;60402;48.082;11.628;2023-05-10T06:17:29;2.40;;;0.43;;
72408;SDS011;60402;48.082;11.628;2023-05-10T06:20:15;0.70;;;0.32;;
72408;SDS011;60402;48.082;11.628;2023-05-10T06:23:01;1.38;;;0.47;;
72408;SDS011;60402;48.082;11.628;2023-05-10T06:25:46;1.27;;;0.40;;
72408;SDS011;60402;48.082;11.628;2023-05-10T06:28:32;3.92;;;0.50;;
72408;SDS011;60402;48.082;11.628;2023-05-10T06:31:18;0.93;;;0.38;;
72408;SDS011;60402;48.082;11.628;2023-05-10T06:34:04;0.40;;;0.38;;
72408;SDS011;60402;48.082;11.628;2023-05-10T06:36:50;1.67;;;0.35;;
72408;SDS011;60402;48.082;11.628;2023-05-10T06:39:35;0.77;;;0.50;;
72408;SDS011;60402;48.082;11.628;2023-05-10T06:42:22;1.35;;;0.50;;
72408;SDS011;60402;48.082;11.628;2023-05-10T06:45:08;0.50;;;0.28;;
72408;SDS011;60402;48.082;11.628;2023-05-10T06:47:54;3.33;;;0.60;;
72408;SDS011;60402;48.082;11.628;2023-05-10T06:50:40;3.47;;;0.80;;
72408;SDS011;60402;48.082;11.628;2023-05-10T06:53:25;0.57;;;0.50;;
72408;SDS011;60402;48.082;11.628;2023-05-10T06:56:11;0.65;;;0.47;;
72408;SDS011;60402;48.082;11.628;2023-05-10T06:58:57;0.45;;;0.30;;
72408;SDS011;60402;48.082;11.628;2023-05-10T07:01:43;2.20;;;0.70;;
72408;SDS011;60402;48.082;11.628;2023-05-10T07:04:28;1.95;;;0.60;;
72408;SDS011;60402;48.082;11.628;2023-05-10T07:07:14;1.30;;;0.50;;
72408;SDS011;60402;48.082;11.628;2023-05-10T07:10:00;1.00;;;0.50;;
72408;SDS011;60402;48.082;11.628;2023-05-10T07:12:45;0.77;;;0.60;;
72408;SDS011;60402;48.082;11.628;2023-05-10T07:15:31;1.10;;;0.50;;
72408;SDS011;60402;48.082;11.628;2023-05-10T07:18:17;1.90;;;0.70;;
72408;SDS011;60402;48.082;11.628;2023-05-10T07:21:03;1.80;;;0.60;;
72408;SDS011;60402;48.082;11.628;2023-05-10T07:23:49;0.98;;;0.57;;
72408;SDS011;60402;48.082;11.628;2023-05-10T07:26:34;2.78;;;0.60;;
72408;SDS011;60402;48.082;11.628;2023-05-10T07:29:20;0.95;;;0.40;;
72408;SDS011;60402;48.082;11.628;2023-05-10T07:32:06;1.45;;;0.57;;
72408;SDS011;60402;48.082;11.628;2023-05-10T07:34:51;1.15;;;0.60;;
72408;SDS011;60402;48.082;11.628;2023-05-10T07:37:37;0.63;;;0.50;;
72408;SDS011;60402;48.082;11.628;2023-05-10T07:40:22;1.25;;;0.70;;
72408;SDS011;60402;48.082;11.628;2023-05-10T07:43:08;1.45;;;0.85;;
72408;SDS011;60402;48.082;11.628;2023-05-10T07:45:54;1.35;;;0.70;;
72408;SDS011;60402;48.082;11.628;2023-05-10T07:48:39;1.17;;;0.70;;
72408;SDS011;60402;48.082;11.628;2023-05-10T07:51:25;0.98;;;0.60;;
72408;SDS011;60402;48.082;11.628;2023-05-10T07:54:11;0.85;;;0.40;;
72408;SDS011;60402;48.082;11.628;2023-05-10T07:56:57;1.92;;;0.57;;
72408;SDS011;60402;48.082;11.628;2023-05-10T07:59:45;1.17;;;0.55;;
72408;SDS011;60402;48.082;11.628;2023-05-10T08:02:30;0.90;;;0.57;;
72408;SDS011;60402;48.082;11.628;2023-05-10T08:05:16;1.08;;;0.70;;
72408;SDS011;60402;48.082;11.628;2023-05-10T08:08:02;1.23;;;0.60;;
72408;SDS011;60402;48.082;11.628;2023-05-10T08:10:47;0.95;;;0.50;;
72408;SDS011;60402;48.082;11.628;2023-05-10T08:13:33;0.70;;;0.40;;
72408;SDS011;60402;48.082;11.628;2023-05-10T08:16:19;2.38;;;0.40;;
72408;SDS011;60402;48.082;11.628;2023-05-10T08:19:05;0.95;;;0.40;;
72408;SDS011;60402;48.082;11.628;2023-05-10T08:21:51;0.93;;;0.40;;
72408;SDS011;60402;48.082;11.628;2023-05-10T08:24:38;1.95;;;0.60;;
72408;SDS011;60402;48.082;11.628;2023-05-10T08:27:24;2.50;;;0.50;;
72408;SDS011;60402;48.082;11.628;2023-05-10T08:30:10;2.33;;;0.65;;
72408;SDS011;60402;48.082;11.628;2023-05-10T08:32:55;4.07;;;1.90;;
72408;SDS011;60402;48.082;11.628;2023-05-10T08:35:41;1.83;;;0.85;;
72408;SDS011;60402;48.082;11.628;2023-05-10T08:38:27;2.33;;;0.80;;
72408;SDS011;60402;48.082;11.628;2023-05-10T08:41:13;1.73;;;0.70;;
72408;SDS011;60402;48.082;11.628;2023-05-10T08:43:58;2.53;;;0.60;;
72408;SDS011;60402;48.082;11.628;2023-05-10T08:46:49;1.08;;;0.50;;
72408;SDS011;60402;48.082;11.628;2023-05-10T08:49:38;1.88;;;0.90;;
72408;SDS011;60402;48.082;11.628;2023-05-10T08:52:25;7.55;;;2.60;;
72408;SDS011;60402;48.082;11.628;2023-05-10T08:55:13;7.57;;;2.72;;
72408;SDS011;60402;48.082;11.628;2023-05-10T08:57:59;3.00;;;1.40;;
72408;SDS011;60402;48.082;11.628;2023-05-10T09:00:45;4.20;;;1.80;;
72408;SDS011;60402;48.082;11.628;2023-05-10T09:03:35;1.60;;;1.10;;
72408;SDS011;60402;48.082;11.628;2023-05-10T09:06:20;0.85;;;0.70;;
72408;SDS011;60402;48.082;11.628;2023-05-10T09:09:06;1.77;;;0.98;;
72408;SDS011;60402;48.082;11.628;2023-05-10T09:11:52;1.52;;;0.70;;
72408;SDS011;60402;48.082;11.628;2023-05-10T09:14:39;1.50;;;0.60;;
72408;SDS011;60402;48.082;11.628;2023-05-10T09:17:25;2.05;;;0.90;;
72408;SDS011;60402;48.082;11.628;2023-05-10T09:20:12;2.65;;;0.90;;
72408;SDS011;60402;48.082;11.628;2023-05-10T09:22:58;1.67;;;0.73;;
72408;SDS011;60402;48.082;11.628;2023-05-10T09:25:44;1.45;;;0.82;;
72408;SDS011;60402;48.082;11.628;2023-05-10T09:31:49;1.80;;;0.90;;
72408;SDS011;60402;48.082;11.628;2023-05-10T09:34:42;1.60;;;0.85;;
72408;SDS011;60402;48.082;11.628;2023-05-10T09:37:30;1.33;;;0.70;;
72408;SDS011;60402;48.082;11.628;2023-05-10T09:40:17;1.52;;;0.60;;
72408;SDS011;60402;48.082;11.628;2023-05-10T09:43:05;0.93;;;0.55;;
72408;SDS011;60402;48.082;11.628;2023-05-10T09:45:52;0.65;;;0.50;;
72408;SDS011;60402;48.082;11.628;2023-05-10T09:48:40;1.63;;;0.60;;
72408;SDS011;60402;48.082;11.628;2023-05-10T09:51:30;0.77;;;0.75;;
72408;SDS011;60402;48.082;11.628;2023-05-10T09:54:17;1.58;;;0.40;;
72408;SDS011;60402;48.082;11.628;2023-05-10T09:57:03;2.13;;;0.60;;
72408;SDS011;60402;48.082;11.628;2023-05-10T09:59:49;0.82;;;0.73;;
72408;SDS011;60402;48.082;11.628;2023-05-10T10:02:35;1.05;;;0.80;;
72408;SDS011;60402;48.082;11.628;2023-05-10T10:05:27;1.40;;;0.90;;
72408;SDS011;60402;48.082;11.628;2023-05-10T10:08:17;1.50;;;0.57;;
72408;SDS011;60402;48.082;11.628;2023-05-10T10:11:02;1.92;;;0.88;;
72408;SDS011;60402;48.082;11.628;2023-05-10T10:13:48;2.35;;;0.90;;
72408;SDS011;60402;48.082;11.628;2023-05-10T10:16:34;1.88;;;0.80;;
72408;SDS011;60402;48.082;11.628;2023-05-10T10:19:20;1.02;;;0.65;;
72408;SDS011;60402;48.082;11.628;2023-05-10T10:22:06;2.63;;;0.70;;
72408;SDS011;60402;48.082;11.628;2023-05-10T10:24:52;2.42;;;1.00;;
72408;SDS011;60402;48.082;11.628;2023-05-10T10:27:45;1.25;;;0.50;;
72408;SDS011;60402;48.082;11.628;2023-05-10T10:30:41;1.98;;;0.60;;
72408;SDS011;60402;48.082;11.628;2023-05-10T10:36:46;1.73;;;0.60;;
72408;SDS011;60402;48.082;11.628;2023-05-10T10:39:32;1.60;;;0.75;;
72408;SDS011;60402;48.082;11.628;2023-05-10T10:45:30;2.40;;;0.60;;
72408;SDS011;60402;48.082;11.628;2023-05-10T10:48:19;0.98;;;0.70;;
72408;SDS011;60402;48.082;11.628;2023-05-10T10:51:06;2.13;;;0.60;;
72408;SDS011;60402;48.082;11.628;2023-05-10T10:53:52;1.75;;;0.90;;
72408;SDS011;60402;48.082;11.628;2023-05-10T10:56:39;2.25;;;0.68;;
72408;SDS011;60402;48.082;11.628;2023-05-10T10:59:27;0.77;;;0.50;;
72408;SDS011;60402;48.082;11.628;2023-05-10T11:05:45;1.70;;;0.55;;
72408;SDS011;60402;48.082;11.628;2023-05-10T11:08:32;0.73;;;0.50;;
72408;SDS011;60402;48.082;11.628;2023-05-10T11:11:19;1.42;;;0.50;;
72408;SDS011;60402;48.082;11.628;2023-05-10T11:14:06;0.55;;;0.55;;
72408;SDS011;60402;48.082;11.628;2023-05-10T11:16:52;3.60;;;1.05;;
72408;SDS011;60402;48.082;11.628;2023-05-10T11:19:38;2.45;;;1.00;;
72408;SDS011;60402;48.082;11.628;2023-05-10T11:23:10;2.20;;;0.80;;
72408;SDS011;60402;48.082;11.628;2023-05-10T11:25:58;2.05;;;0.70;;
72408;SDS011;60402;48.082;11.628;2023-05-10T11:28:46;1.45;;;0.70;;
72408;SDS011;60402;48.082;11.628;2023-05-10T11:31:33;1.83;;;0.70;;
72408;SDS011;60402;48.082;11.628;2023-05-10T11:34:29;1.75;;;0.63;;
72408;SDS011;60402;48.082;11.628;2023-05-10T11:37:17;1.73;;;0.80;;
72408;SDS011;60402;48.082;11.628;2023-05-10T11:40:03;1.67;;;0.40;;
72408;SDS011;60402;48.082;11.628;2023-05-10T11:42:49;2.60;;;0.65;;
72408;SDS011;60402;48.082;11.628;2023-05-10T11:45:35;3.50;;;0.80;;
72408;SDS011;60402;48.082;11.628;2023-05-10T11:48:22;1.02;;;0.50;;
72408;SDS011;60402;48.082;11.628;2023-05-10T11:51:09;1.63;;;0.63;;
72408;SDS011;60402;48.082;11.628;2023-05-10T11:53:56;1.65;;;0.98;;
72408;SDS011;60402;48.082;11.628;2023-05-10T11:56:42;1.35;;;0.82;;
72408;SDS011;60402;48.082;11.628;2023-05-10T11:59:27;2.30;;;1.08;;
72408;SDS011;60402;48.082;11.628;2023-05-10T12:02:13;2.67;;;0.90;;
72408;SDS011;60402;48.082;11.628;2023-05-10T12:04:59;2.55;;;0.88;;
72408;SDS011;60402;48.082;11.628;2023-05-10T12:07:45;3.90;;;1.48;;
72408;SDS011;60402;48.082;11.628;2023-05-10T12:10:34;2.90;;;1.10;;
72408;SDS011;60402;48.082;11.628;2023-05-10T12:13:20;2.63;;;0.90;;
72408;SDS011;60402;48.082;11.628;2023-05-10T12:16:13;2.03;;;0.80;;
72408;SDS011;60402;48.082;11.628;2023-05-10T12:19:00;2.22;;;0.50;;
72408;SDS011;60402;48.082;11.628;2023-05-10T12:21:46;1.48;;;0.45;;
72408;SDS011;60402;48.082;11.628;2023-05-10T12:24:35;2.90;;;0.63;;
72408;SDS011;60402;48.082;11.628;2023-05-10T12:27:21;3.22;;;0.63;;
72408;SDS011;60402;48.082;11.628;2023-05-10T12:30:07;0.63;;;0.50;;
72408;SDS011;60402;48.082;11.628;2023-05-10T12:32:54;3.25;;;1.15;;
72408;SDS011;60402;48.082;11.628;2023-05-10T12:35:45;2.42;;;0.73;;
72408;SDS011;60402;48.082;11.628;2023-05-10T12:38:35;0.95;;;0.50;;
72408;SDS011;60402;48.082;11.628;2023-05-10T12:41:23;4.00;;;1.05;;
72408;SDS011;60402;48.082;11.628;2023-05-10T12:44:10;2.20;;;0.70;;
72408;SDS011;60402;48.082;11.628;2023-05-10T12:46:55;1.63;;;0.70;;
72408;SDS011;60402;48.082;11.628;2023-05-10T12:49:41;1.85;;;0.70;;
72408;SDS011;60402;48.082;11.628;2023-05-10T12:52:27;1.73;;;0.70;;
72408;SDS011;60402;48.082;11.628;2023-05-10T12:55:13;1.60;;;0.90;;
72408;SDS011;60402;48.082;11.628;2023-05-10T12:57:59;2.42;;;0.98;;
72408;SDS011;60402;48.082;11.628;2023-05-10T13:00:45;2.47;;;0.80;;
72408;SDS011;60402;48.082;11.628;2023-05-10T13:03:31;1.35;;;0.70;;
72408;SDS011;60402;48.082;11.628;2023-05-10T13:06:17;1.95;;;1.02;;
72408;SDS011;60402;48.082;11.628;2023-05-10T13:09:03;1.80;;;0.70;;
72408;SDS011;60402;48.082;11.628;2023-05-10T13:11:48;1.65;;;0.80;;
72408;SDS011;60402;48.082;11.628;2023-05-10T13:14:34;2.08;;;0.50;;
72408;SDS011;60402;48.082;11.628;2023-05-10T13:17:20;1.85;;;0.70;;
72408;SDS011;60402;48.082;11.628;2023-05-10T13:20:06;2.42;;;0.65;;
72408;SDS011;60402;48.082;11.628;2023-05-10T13:22:52;1.63;;;0.70;;
72408;SDS011;60402;48.082;11.628;2023-05-10T13:25:38;2.15;;;0.73;;
72408;SDS011;60402;48.082;11.628;2023-05-10T13:28:24;2.60;;;0.85;;
72408;SDS011;60402;48.082;11.628;2023-05-10T13:31:11;2.05;;;0.88;;
72408;SDS011;60402;48.082;11.628;2023-05-10T13:33:57;2.15;;;0.77;;
72408;SDS011;60402;48.082;11.628;2023-05-10T13:36:42;1.27;;;0.70;;
72408;SDS011;60402;48.082;11.628;2023-05-10T13:39:28;2.88;;;0.70;;
72408;SDS011;60402;48.082;11.628;2023-05-10T13:42:18;2.78;;;0.70;;
72408;SDS011;60402;48.082;11.628;2023-05-10T13:45:04;1.65;;;0.77;;
72408;SDS011;60402;48.082;11.628;2023-05-10T13:47:50;2.42;;;0.70;;
72408;SDS011;60402;48.082;11.628;2023-05-10T13:50:37;2.55;;;0.80;;
72408;SDS011;60402;48.082;11.628;2023-05-10T13:53:23;2.47;;;0.80;;
72408;SDS011;60402;48.082;11.628;2023-05-10T13:56:09;1.27;;;0.63;;
72408;SDS011;60402;48.082;11.628;2023-05-10T13:58:55;1.83;;;0.70;;
72408;SDS011;60402;48.082;11.628;2023-05-10T14:01:42;2.30;;;0.63;;
72408;SDS011;60402;48.082;11.628;2023-05-10T14:04:28;2.67;;;1.30;;
72408;SDS011;60402;48.082;11.628;2023-05-10T14:07:14;2.85;;;0.70;;
72408;SDS011;60402;48.082;11.628;2023-05-10T14:10:00;0.98;;;0.50;;
72408;SDS011;60402;48.082;11.628;2023-05-10T14:12:45;1.83;;;0.50;;
72408;SDS011;60402;48.082;11.628;2023-05-10T14:15:31;1.20;;;0.60;;
72408;SDS011;60402;48.082;11.628;2023-05-10T14:18:17;3.65;;;0.93;;
72408;SDS011;60402;48.082;11.628;2023-05-10T14:21:03;1.88;;;0.80;;
72408;SDS011;60402;48.082;11.628;2023-05-10T14:23:49;2.67;;;0.70;;
72408;SDS011;60402;48.082;11.628;2023-05-10T14:26:34;2.47;;;0.68;;
72408;SDS011;60402;48.082;11.628;2023-05-10T14:29:20;3.17;;;1.02;;
72408;SDS011;60402;48.082;11.628;2023-05-10T14:32:07;1.33;;;0.52;;
72408;SDS011;60402;48.082;11.628;2023-05-10T14:34:53;1.42;;;0.70;;
72408;SDS011;60402;48.082;11.628;2023-05-10T14:37:38;2.38;;;0.73;;
72408;SDS011;60402;48.082;11.628;2023-05-10T14:40:24;0.82;;;0.47;;
72408;SDS011;60402;48.082;11.628;2023-05-10T14:43:10;1.70;;;0.80;;
72408;SDS011;60402;48.082;11.628;2023-05-10T14:45:55;2.85;;;0.70;;
72408;SDS011;60402;48.082;11.628;2023-05-10T14:48:41;3.50;;;0.77;;
72408;SDS011;60402;48.082;11.628;2023-05-10T14:51:26;3.15;;;0.73;;
72408;SDS011;60402;48.082;11.628;2023-05-10T14:54:12;1.02;;;0.60;;
72408;SDS011;60402;48.082;11.628;2023-05-10T14:56:57;1.23;;;0.70;;
72408;SDS011;60402;48.082;11.628;2023-05-10T14:59:43;1.80;;;0.68;;
72408;SDS011;60402;48.082;11.628;2023-05-10T15:02:30;2.13;;;0.70;;
72408;SDS011;60402;48.082;11.628;2023-05-10T15:05:16;0.95;;;0.55;;
72408;SDS011;60402;48.082;11.628;2023-05-10T15:08:02;1.95;;;0.60;;
72408;SDS011;60402;48.082;11.628;2023-05-10T15:10:48;2.95;;;0.60;;
72408;SDS011;60402;48.082;11.628;2023-05-10T15:13:34;1.83;;;0.77;;
72408;SDS011;60402;48.082;11.628;2023-05-10T15:16:19;0.90;;;0.60;;
72408;SDS011;60402;48.082;11.628;2023-05-10T15:19:05;2.10;;;0.80;;
72408;SDS011;60402;48.082;11.628;2023-05-10T15:21:50;2.30;;;0.60;;
72408;SDS011;60402;48.082;11.628;2023-05-10T15:24:36;1.65;;;0.90;;
72408;SDS011;60402;48.082;11.628;2023-05-10T15:27:22;1.25;;;0.73;;
72408;SDS011;60402;48.082;11.628;2023-05-10T15:30:08;1.40;;;0.65;;
72408;SDS011;60402;48.082;11.628;2023-05-10T15:32:54;2.00;;;0.65;;
72408;SDS011;60402;48.082;11.628;2023-05-10T15:35:40;1.15;;;0.60;;
72408;SDS011;60402;48.082;11.628;2023-05-10T15:38:26;2.35;;;0.60;;
72408;SDS011;60402;48.082;11.628;2023-05-10T15:41:12;1.75;;;0.70;;
72408;SDS011;60402;48.082;11.628;2023-05-10T15:43:58;2.20;;;0.80;;
72408;SDS011;60402;48.082;11.628;2023-05-10T15:46:46;1.10;;;0.50;;
72408;SDS011;60402;48.082;11.628;2023-05-10T15:49:32;0.95;;;0.50;;
72408;SDS011;60402;48.082;11.628;2023-05-10T15:52:18;2.88;;;0.60;;
72408;SDS011;60402;48.082;11.628;2023-05-10T15:55:05;1.20;;;0.63;;
72408;SDS011;60402;48.082;11.628;2023-05-10T15:57:56;2.03;;;0.73;;
72408;SDS011;60402;48.082;11.628;2023-05-10T16:00:42;1.80;;;0.85;;
72408;SDS011;60402;48.082;11.628;2023-05-10T16:03:28;2.28;;;0.77;;
72408;SDS011;60402;48.082;11.628;2023-05-10T16:06:15;4.00;;;1.13;;
72408;SDS011;60402;48.082;11.628;2023-05-10T16:09:00;2.95;;;1.00;;
72408;SDS011;60402;48.082;11.628;2023-05-10T16:11:46;2.17;;;0.88;;
72408;SDS011;60402;48.082;11.628;2023-05-10T16:14:32;2.60;;;1.20;;
72408;SDS011;60402;48.082;11.628;2023-05-10T16:17:17;2.40;;;0.90;;
72408;SDS011;60402;48.082;11.628;2023-05-10T16:20:04;3.53;;;1.00;;
72408;SDS011;60402;48.082;11.628;2023-05-10T16:22:50;0.90;;;0.70;;
72408;SDS011;60402;48.082;11.628;2023-05-10T16:25:36;2.60;;;1.15;;
72408;SDS011;60402;48.082;11.628;2023-05-10T16:28:22;2.45;;;0.90;;
72408;SDS011;60402;48.082;11.628;2023-05-10T16:31:08;3.22;;;0.90;;
72408;SDS011;60402;48.082;11.628;2023-05-10T16:33:53;3.03;;;1.25;;
72408;SDS011;60402;48.082;11.628;2023-05-10T16:36:39;3.92;;;1.30;;
72408;SDS011;60402;48.082;11.628;2023-05-10T16:39:25;4.43;;;1.52;;
72408;SDS011;60402;48.082;11.628;2023-05-10T16:42:10;4.70;;;1.40;;
72408;SDS011;60402;48.082;11.628;2023-05-10T16:44:56;4.05;;;1.30;;
72408;SDS011;60402;48.082;11.628;2023-05-10T16:47:42;3.83;;;1.02;;
72408;SDS011;60402;48.082;11.628;2023-05-10T16:50:28;3.63;;;1.13;;
72408;SDS011;60402;48.082;11.628;2023-05-10T16:53:13;4.43;;;1.20;;
72408;SDS011;60402;48.082;11.628;2023-05-10T16:56:00;3.15;;;1.05;;